Time;durP1;ratioP1;P1;durP2;ratioP2;P2;SDS_P1;SDS_P2;PMS_P1;PMS_P2;Temp;Humidity;BMP_temperature;BMP_pressure;BME280_temperature;BME280_humidity;BME280_pressure;Samples;Min_cycle;Max_cycle;Signal;HPM_P1;HPM_P2
2023/05/17 00:02:01;;;;;;;3.50;3.30;;;;;;;;;;5039139;28;20044;-66
2023/05/17 00:04:27;;;;;;;3.65;3.45;;;;;;;;;;5040096;28;20036;-67
2023/05/17 00:06:52;;;;;;;3.15;3.05;;;;;;;;;;5036220;28;20040;-66
2023/05/17 00:09:18;;;;;;;3.50;3.33;;;;;;;;;;5044630;28;20033;-66
2023/05/17 00:11:44;;;;;;;3.40;3.20;;;;;;;;;;5039131;28;20544;-67
2023/05/17 00:14:10;;;;;;;3.60;3.40;;;;;;;;;;5034755;28;20025;-67
2023/05/17 00:16:36;;;;;;;3.50;3.30;;;;;;;;;;5036497;28;20061;-67
2023/05/17 00:19:02;;;;;;;3.50;3.30;;;;;;;;;;5038819;28;20468;-66
2023/05/17 00:21:27;;;;;;;3.67;3.45;;;;;;;;;;5023186;28;20044;-66
2023/05/17 00:23:53;;;;;;;4.90;3.55;;;;;;;;;;5038336;28;20675;-66
2023/05/17 00:26:19;;;;;;;2.95;2.85;;;;;;;;;;5021805;28;20392;-67
2023/05/17 00:28:45;;;;;;;3.60;3.30;;;;;;;;;;5038574;28;20029;-67
2023/05/17 00:31:13;;;;;;;2.85;2.75;;;;;;;;;;5018026;28;20037;-67
2023/05/17 00:33:38;;;;;;;3.83;3.53;;;;;;;;;;5032477;28;20095;-67
2023/05/17 00:36:04;;;;;;;3.30;3.15;;;;;;;;;;5034364;28;20028;-67
2023/05/17 00:38:30;;;;;;;2.92;2.83;;;;;;;;;;5039929;28;20051;-67
2023/05/17 00:40:55;;;;;;;4.15;3.75;;;;;;;;;;5019360;28;20060;-66
2023/05/17 00:43:21;;;;;;;3.08;2.88;;;;;;;;;;5039253;28;20544;-67
2023/05/17 00:45:48;;;;;;;3.50;3.33;;;;;;;;;;5028858;28;20030;-66
2023/05/17 00:48:13;;;;;;;3.20;3.05;;;;;;;;;;5021681;28;20045;-67
2023/05/17 00:50:40;;;;;;;4.63;2.88;;;;;;;;;;5024287;28;20515;-66
2023/05/17 00:53:06;;;;;;;3.63;3.30;;;;;;;;;;5017163;28;20570;-66
2023/05/17 00:55:32;;;;;;;3.00;2.90;;;;;;;;;;5022050;28;20081;-67
2023/05/17 00:57:58;;;;;;;3.33;3.20;;;;;;;;;;5038757;28;20062;-66
2023/05/17 01:00:24;;;;;;;4.78;3.97;;;;;;;;;;5038649;28;20121;-66
2023/05/17 01:02:50;;;;;;;3.50;3.08;;;;;;;;;;5018303;28;20234;-65
2023/05/17 01:05:16;;;;;;;3.13;3.03;;;;;;;;;;5037211;28;20500;-66
2023/05/17 01:07:41;;;;;;;3.45;3.30;;;;;;;;;;5037809;28;20033;-66
2023/05/17 01:10:09;;;;;;;3.20;3.05;;;;;;;;;;5032990;28;20044;-67
2023/05/17 01:12:53;;;;;;;3.10;3.00;;;;;;;;;;5037651;28;20493;-66
2023/05/17 01:15:24;;;;;;;2.92;2.83;;;;;;;;;;5036842;28;20048;-67
2023/05/17 01:18:14;;;;;;;3.08;2.97;;;;;;;;;;5016378;28;20044;-67
2023/05/17 01:20:42;;;;;;;2.72;2.63;;;;;;;;;;5032897;28;20044;-66
2023/05/17 01:23:37;;;;;;;3.55;3.28;;;;;;;;;;5025271;28;20076;-66
2023/05/17 01:26:19;;;;;;;3.40;3.10;;;;;;;;;;5004361;28;20057;-66
2023/05/17 01:28:48;;;;;;;3.55;3.25;;;;;;;;;;5021072;28;20039;-66
2023/05/17 01:31:15;;;;;;;3.25;3.13;;;;;;;;;;5018727;28;20041;-66
2023/05/17 01:33:42;;;;;;;5.53;3.35;;;;;;;;;;5025818;28;20029;-66
2023/05/17 01:36:08;;;;;;;3.50;3.20;;;;;;;;;;5025641;28;20136;-66
2023/05/17 01:38:34;;;;;;;3.95;3.65;;;;;;;;;;5025925;28;20107;-67
2023/05/17 01:41:27;;;;;;;3.63;3.42;;;;;;;;;;5021979;28;20107;-67
2023/05/17 01:44:01;;;;;;;3.15;3.03;;;;;;;;;;5025649;28;20190;-67
2023/05/17 01:46:39;;;;;;;3.50;3.00;;;;;;;;;;5022520;28;20045;-66
2023/05/17 01:49:26;;;;;;;3.50;3.35;;;;;;;;;;5043156;28;20099;-66
2023/05/17 01:52:02;;;;;;;4.10;3.30;;;;;;;;;;5025854;28;20036;-66
2023/05/17 01:54:33;;;;;;;3.10;3.00;;;;;;;;;;5038411;28;20041;-66
2023/05/17 01:57:02;;;;;;;3.10;3.00;;;;;;;;;;5027851;28;20149;-66
2023/05/17 01:59:29;;;;;;;4.72;3.55;;;;;;;;;;5017880;28;20432;-66
2023/05/17 02:02:05;;;;;;;3.10;3.00;;;;;;;;;;5015765;28;20032;-67
2023/05/17 02:04:31;;;;;;;3.85;3.33;;;;;;;;;;5041096;28;20041;-68
2023/05/17 02:06:59;;;;;;;3.53;3.38;;;;;;;;;;5020246;28;20045;-67
2023/05/17 02:09:25;;;;;;;3.28;3.17;;;;;;;;;;5011909;28;20034;-66
2023/05/17 02:11:50;;;;;;;3.10;3.00;;;;;;;;;;5035868;28;20477;-67
2023/05/17 02:14:16;;;;;;;3.20;3.10;;;;;;;;;;5025239;28;20030;-66
2023/05/17 02:16:41;;;;;;;3.90;3.60;;;;;;;;;;5025834;28;20119;-66
2023/05/17 02:19:07;;;;;;;3.60;3.50;;;;;;;;;;5024469;28;20127;-67
2023/05/17 02:21:34;;;;;;;4.22;3.92;;;;;;;;;;5027926;28;20040;-65
2023/05/17 02:24:01;;;;;;;3.63;3.42;;;;;;;;;;5045236;28;20048;-66
2023/05/17 02:26:27;;;;;;;3.88;3.67;;;;;;;;;;5024532;28;20033;-67
2023/05/17 02:28:54;;;;;;;3.72;3.53;;;;;;;;;;5039231;28;20050;-67
2023/05/17 02:31:20;;;;;;;4.20;3.90;;;;;;;;;;5035350;28;20029;-66
2023/05/17 02:33:48;;;;;;;3.75;3.47;;;;;;;;;;5026753;28;20041;-67
2023/05/17 02:36:14;;;;;;;6.43;3.80;;;;;;;;;;5022342;28;20040;-66
2023/05/17 02:38:40;;;;;;;4.25;4.05;;;;;;;;;;5026609;28;20029;-67
2023/05/17 02:41:06;;;;;;;3.63;3.42;;;;;;;;;;5037954;28;20041;-66
2023/05/17 02:43:31;;;;;;;4.40;4.00;;;;;;;;;;5036180;28;20028;-67
2023/05/17 02:45:57;;;;;;;5.40;3.90;;;;;;;;;;5031143;28;20037;-67
2023/05/17 02:48:22;;;;;;;3.80;3.50;;;;;;;;;;5028565;28;20108;-67
2023/05/17 02:50:48;;;;;;;3.97;3.75;;;;;;;;;;5043269;28;20060;-67
2023/05/17 02:53:13;;;;;;;3.58;3.38;;;;;;;;;;5034215;28;20033;-66
2023/05/17 02:55:39;;;;;;;3.47;3.28;;;;;;;;;;5027468;28;20037;-66
2023/05/17 02:58:05;;;;;;;6.72;3.60;;;;;;;;;;5024647;28;20059;-67
2023/05/17 03:00:31;;;;;;;3.75;3.28;;;;;;;;;;5021651;28;20064;-66
2023/05/17 03:02:57;;;;;;;3.60;3.40;;;;;;;;;;5019702;28;20063;-66
2023/05/17 03:05:23;;;;;;;3.95;3.60;;;;;;;;;;5033624;28;20037;-66
2023/05/17 03:07:50;;;;;;;8.90;3.53;;;;;;;;;;5021818;28;20056;-66
2023/05/17 03:10:16;;;;;;;9.93;3.95;;;;;;;;;;5023543;28;20381;-66
2023/05/17 03:12:43;;;;;;;3.50;3.40;;;;;;;;;;5026536;28;20037;-66
2023/05/17 03:15:09;;;;;;;3.40;3.30;;;;;;;;;;5039629;28;20040;-66
2023/05/17 03:17:35;;;;;;;6.82;4.38;;;;;;;;;;5024192;28;20051;-66
2023/05/17 03:20:02;;;;;;;3.97;3.78;;;;;;;;;;5025138;28;20037;-66
2023/05/17 03:22:29;;;;;;;4.18;3.78;;;;;;;;;;5022800;28;20041;-66
2023/05/17 03:24:57;;;;;;;3.20;3.10;;;;;;;;;;5019573;28;20038;-66
2023/05/17 03:27:23;;;;;;;3.45;3.25;;;;;;;;;;5024105;28;20360;-66
2023/05/17 03:29:48;;;;;;;3.92;3.72;;;;;;;;;;5020724;28;20099;-66
2023/05/17 03:32:14;;;;;;;3.35;3.15;;;;;;;;;;5020037;28;20041;-66
2023/05/17 03:34:40;;;;;;;4.00;3.80;;;;;;;;;;5019127;28;20037;-66
2023/05/17 03:37:05;;;;;;;3.70;3.50;;;;;;;;;;5024609;28;20107;-66
2023/05/17 03:39:31;;;;;;;6.32;4.35;;;;;;;;;;5024920;28;20024;-65
2023/05/17 03:41:57;;;;;;;3.67;3.47;;;;;;;;;;5021986;28;20167;-66
2023/05/17 03:44:24;;;;;;;3.65;3.45;;;;;;;;;;5022520;28;20058;-66
2023/05/17 03:46:51;;;;;;;3.42;3.25;;;;;;;;;;5022989;28;20128;-66
2023/05/17 03:49:17;;;;;;;2.80;2.70;;;;;;;;;;5021787;28;20524;-67
2023/05/17 03:51:43;;;;;;;5.45;3.40;;;;;;;;;;5018137;28;20045;-66
2023/05/17 03:54:10;;;;;;;3.42;3.33;;;;;;;;;;5036335;28;20025;-66
2023/05/17 03:56:35;;;;;;;4.22;3.90;;;;;;;;;;5036701;28;20048;-65
2023/05/17 03:59:01;;;;;;;4.13;3.85;;;;;;;;;;5019191;28;20043;-66
2023/05/17 04:01:26;;;;;;;3.83;3.47;;;;;;;;;;5024301;28;20060;-67
2023/05/17 04:03:52;;;;;;;3.60;3.38;;;;;;;;;;5023263;28;20057;-66
2023/05/17 04:06:19;;;;;;;3.92;3.63;;;;;;;;;;5025313;28;20458;-66
2023/05/17 04:08:45;;;;;;;3.90;3.72;;;;;;;;;;5020832;28;20527;-65
2023/05/17 04:11:13;;;;;;;3.95;3.75;;;;;;;;;;5030273;28;20095;-65
2023/05/17 04:13:41;;;;;;;4.00;3.80;;;;;;;;;;5020617;28;20037;-66
2023/05/17 04:16:07;;;;;;;3.35;3.25;;;;;;;;;;5016770;28;20662;-65
2023/05/17 04:18:34;;;;;;;4.10;3.90;;;;;;;;;;5038913;28;20032;-65
2023/05/17 04:21:01;;;;;;;4.00;3.80;;;;;;;;;;5014247;28;20040;-65
2023/05/17 04:23:26;;;;;;;4.10;3.90;;;;;;;;;;5036192;28;20036;-66
2023/05/17 04:25:52;;;;;;;4.10;3.72;;;;;;;;;;5024313;28;20037;-66
2023/05/17 04:28:20;;;;;;;3.80;3.60;;;;;;;;;;5022620;28;20036;-66
2023/05/17 04:30:46;;;;;;;4.25;3.95;;;;;;;;;;5019486;28;20047;-66
2023/05/17 04:33:12;;;;;;;3.72;3.42;;;;;;;;;;5017285;28;20156;-65
2023/05/17 04:35:41;;;;;;;4.68;4.13;;;;;;;;;;5021624;28;20040;-66
2023/05/17 04:38:07;;;;;;;3.80;3.60;;;;;;;;;;5018135;28;20477;-66
2023/05/17 04:40:33;;;;;;;3.95;3.75;;;;;;;;;;5016070;28;20055;-66
2023/05/17 04:42:59;;;;;;;7.30;4.50;;;;;;;;;;5024455;28;20447;-66
2023/05/17 04:45:25;;;;;;;4.35;4.13;;;;;;;;;;5017506;28;20393;-65
2023/05/17 04:47:51;;;;;;;4.25;4.00;;;;;;;;;;5019222;28;20492;-66
2023/05/17 04:50:17;;;;;;;4.13;3.85;;;;;;;;;;5022051;28;20044;-66
2023/05/17 04:52:47;;;;;;;4.05;3.85;;;;;;;;;;5023319;28;20042;-66
2023/05/17 04:55:13;;;;;;;4.22;4.03;;;;;;;;;;5017537;28;20035;-66
2023/05/17 04:57:38;;;;;;;6.57;4.30;;;;;;;;;;5019964;28;20120;-66
2023/05/17 05:00:06;;;;;;;4.57;4.28;;;;;;;;;;5031874;28;20051;-67
2023/05/17 05:02:33;;;;;;;4.20;3.90;;;;;;;;;;5017795;28;20108;-66
2023/05/17 05:04:59;;;;;;;3.80;3.60;;;;;;;;;;5026206;28;20041;-67
2023/05/17 05:07:25;;;;;;;9.10;4.57;;;;;;;;;;5022266;28;20528;-67
2023/05/17 05:09:51;;;;;;;4.65;4.30;;;;;;;;;;5026011;28;20919;-66
2023/05/17 05:12:17;;;;;;;4.75;4.45;;;;;;;;;;5025837;28;20032;-66
2023/05/17 05:14:43;;;;;;;5.35;4.43;;;;;;;;;;5021427;28;20029;-66
2023/05/17 05:17:09;;;;;;;5.95;4.63;;;;;;;;;;5044282;28;20450;-66
2023/05/17 05:19:34;;;;;;;6.22;4.45;;;;;;;;;;5018937;28;20147;-66
2023/05/17 05:22:00;;;;;;;4.85;4.55;;;;;;;;;;5024592;28;20103;-66
2023/05/17 05:24:28;;;;;;;4.57;4.20;;;;;;;;;;5020483;28;20476;-67
2023/05/17 05:26:54;;;;;;;4.47;4.18;;;;;;;;;;5027076;28;20032;-66
2023/05/17 05:29:20;;;;;;;6.28;4.80;;;;;;;;;;5036800;28;20052;-67
2023/05/17 05:31:45;;;;;;;6.65;4.90;;;;;;;;;;5021589;28;20093;-67
2023/05/17 05:34:12;;;;;;;4.40;4.05;;;;;;;;;;5022783;28;20028;-67
2023/05/17 05:36:37;;;;;;;5.03;4.63;;;;;;;;;;5024296;28;20045;-66
2023/05/17 05:39:03;;;;;;;6.03;4.88;;;;;;;;;;5022766;28;20032;-66
2023/05/17 05:41:31;;;;;;;7.00;5.18;;;;;;;;;;5026462;28;20049;-66
2023/05/17 05:43:57;;;;;;;5.78;4.18;;;;;;;;;;5021896;28;20029;-66
2023/05/17 05:46:23;;;;;;;4.53;4.15;;;;;;;;;;5020631;28;20039;-66
2023/05/17 05:48:49;;;;;;;4.38;4.07;;;;;;;;;;5026524;28;20048;-67
2023/05/17 05:51:15;;;;;;;8.65;4.40;;;;;;;;;;5042416;28;20037;-67
2023/05/17 05:53:42;;;;;;;4.40;4.10;;;;;;;;;;5020726;28;20508;-66
2023/05/17 05:56:08;;;;;;;5.10;4.20;;;;;;;;;;5024085;28;20033;-66
2023/05/17 05:58:34;;;;;;;4.40;4.00;;;;;;;;;;5020434;28;20033;-67
2023/05/17 06:01:01;;;;;;;5.15;4.40;;;;;;;;;;5024144;28;20104;-66
2023/05/17 06:03:27;;;;;;;4.47;4.05;;;;;;;;;;5040094;28;20349;-66
2023/05/17 06:05:52;;;;;;;4.32;3.72;;;;;;;;;;5038386;28;20049;-67
2023/05/17 06:08:18;;;;;;;4.45;4.15;;;;;;;;;;5038063;28;20029;-67
2023/05/17 06:10:44;;;;;;;4.25;4.05;;;;;;;;;;5038493;28;20090;-66
2023/05/17 06:13:10;;;;;;;4.20;3.80;;;;;;;;;;5037892;28;20120;-66
2023/05/17 06:15:36;;;;;;;4.38;4.05;;;;;;;;;;5041120;28;20614;-66
2023/05/17 06:18:01;;;;;;;9.02;3.80;;;;;;;;;;5041705;28;20044;-66
2023/05/17 06:20:27;;;;;;;6.95;4.07;;;;;;;;;;5037088;28;20098;-66
2023/05/17 06:22:52;;;;;;;4.05;3.75;;;;;;;;;;5036275;28;20496;-66
2023/05/17 06:25:18;;;;;;;5.43;3.80;;;;;;;;;;5044060;28;20044;-66
2023/05/17 06:27:43;;;;;;;3.85;3.55;;;;;;;;;;5044730;28;20121;-66
2023/05/17 06:30:10;;;;;;;3.78;3.53;;;;;;;;;;5036642;28;20366;-66
2023/05/17 06:32:35;;;;;;;6.68;3.90;;;;;;;;;;5038735;28;20512;-66
2023/05/17 06:35:01;;;;;;;3.70;3.40;;;;;;;;;;5035724;28;20028;-65
2023/05/17 06:37:27;;;;;;;3.60;3.40;;;;;;;;;;5035741;28;20036;-65
2023/05/17 06:40:01;;;;;;;4.32;4.00;;;;;;;;;;5039267;28;20036;-66
2023/05/17 06:42:27;;;;;;;4.00;3.70;;;;;;;;;;5041371;28;20190;-67
2023/05/17 06:44:53;;;;;;;5.10;3.97;;;;;;;;;;5035368;28;20144;-65
2023/05/17 06:47:18;;;;;;;4.32;4.03;;;;;;;;;;5040246;28;20025;-66
2023/05/17 06:49:44;;;;;;;4.65;4.22;;;;;;;;;;5039655;28;20124;-67
2023/05/17 06:52:10;;;;;;;5.53;3.90;;;;;;;;;;5032287;28;20504;-66
2023/05/17 06:54:36;;;;;;;4.22;3.80;;;;;;;;;;5041976;28;20024;-67
2023/05/17 06:57:02;;;;;;;5.00;3.80;;;;;;;;;;5037664;28;20041;-67
2023/05/17 06:59:28;;;;;;;6.38;4.10;;;;;;;;;;5041731;28;20047;-66
2023/05/17 07:01:53;;;;;;;6.00;4.88;;;;;;;;;;5037988;28;20025;-66
2023/05/17 07:04:19;;;;;;;4.57;4.18;;;;;;;;;;5038606;28;20536;-67
2023/05/17 07:06:45;;;;;;;4.57;3.90;;;;;;;;;;5042018;28;20298;-66
2023/05/17 07:09:11;;;;;;;4.10;3.80;;;;;;;;;;5029682;28;20025;-67
2023/05/17 07:11:37;;;;;;;4.75;4.30;;;;;;;;;;5042996;28;20037;-67
2023/05/17 07:14:02;;;;;;;4.45;4.15;;;;;;;;;;5041008;28;20037;-66
2023/05/17 07:16:28;;;;;;;5.25;3.80;;;;;;;;;;5037282;28;20511;-66
2023/05/17 07:18:53;;;;;;;5.10;3.88;;;;;;;;;;5037047;28;20182;-67
2023/05/17 07:21:19;;;;;;;8.05;4.15;;;;;;;;;;5037541;28;20373;-67
2023/05/17 07:23:44;;;;;;;9.00;4.15;;;;;;;;;;5031791;28;20094;-67
2023/05/17 07:26:10;;;;;;;5.13;4.32;;;;;;;;;;5040507;28;20489;-66
2023/05/17 07:28:36;;;;;;;7.50;4.40;;;;;;;;;;5036842;28;20064;-67
2023/05/17 07:31:01;;;;;;;4.35;4.05;;;;;;;;;;5039203;28;20021;-66
2023/05/17 07:33:27;;;;;;;4.60;4.20;;;;;;;;;;5038518;28;20528;-67
2023/05/17 07:35:53;;;;;;;4.07;3.70;;;;;;;;;;5033198;28;20316;-67
2023/05/17 07:38:18;;;;;;;6.93;4.68;;;;;;;;;;5040603;28;20080;-67
2023/05/17 07:40:44;;;;;;;5.25;4.47;;;;;;;;;;5042062;28;20340;-67
2023/05/17 07:43:09;;;;;;;4.40;4.00;;;;;;;;;;5036744;28;20044;-67
2023/05/17 07:45:35;;;;;;;10.18;4.10;;;;;;;;;;5036852;28;20036;-67
2023/05/17 07:48:00;;;;;;;4.40;3.97;;;;;;;;;;5041101;28;20060;-66
2023/05/17 07:50:26;;;;;;;5.15;4.00;;;;;;;;;;5038749;28;20107;-66
2023/05/17 07:52:52;;;;;;;5.38;4.43;;;;;;;;;;5036799;28;20029;-66
2023/05/17 07:55:19;;;;;;;6.90;4.15;;;;;;;;;;5039774;28;20469;-67
2023/05/17 07:57:46;;;;;;;7.63;4.50;;;;;;;;;;5035919;28;20037;-68
2023/05/17 08:00:12;;;;;;;5.07;4.38;;;;;;;;;;5033982;28;20129;-67
2023/05/17 08:02:39;;;;;;;6.90;4.40;;;;;;;;;;5040144;28;20040;-68
2023/05/17 08:05:06;;;;;;;6.85;4.10;;;;;;;;;;5042278;28;20057;-67
2023/05/17 08:07:31;;;;;;;4.25;3.80;;;;;;;;;;5044212;28;20538;-67
2023/05/17 08:09:57;;;;;;;6.18;4.45;;;;;;;;;;5034799;28;20029;-67
2023/05/17 08:12:22;;;;;;;4.55;4.15;;;;;;;;;;5039323;28;20196;-67
2023/05/17 08:14:48;;;;;;;5.72;4.32;;;;;;;;;;5037996;28;20041;-67
2023/05/17 08:17:13;;;;;;;4.43;4.03;;;;;;;;;;5035609;28;20040;-68
2023/05/17 08:19:39;;;;;;;9.02;4.53;;;;;;;;;;5042348;28;20028;-68
2023/05/17 08:22:04;;;;;;;6.15;4.38;;;;;;;;;;5036734;28;20114;-67
2023/05/17 08:24:30;;;;;;;6.85;4.72;;;;;;;;;;5041286;28;20065;-67
2023/05/17 08:26:55;;;;;;;5.20;3.95;;;;;;;;;;5033212;28;20473;-67
2023/05/17 08:29:21;;;;;;;4.65;4.10;;;;;;;;;;5039654;28;20329;-67
2023/05/17 08:31:47;;;;;;;6.10;4.43;;;;;;;;;;5037287;28;20060;-67
2023/05/17 08:34:12;;;;;;;6.82;4.03;;;;;;;;;;5039142;28;20029;-67
2023/05/17 08:36:38;;;;;;;5.07;4.13;;;;;;;;;;5035997;28;20500;-67
2023/05/17 08:39:03;;;;;;;5.75;4.10;;;;;;;;;;5038030;28;20456;-67
2023/05/17 08:41:29;;;;;;;4.82;3.70;;;;;;;;;;5038284;28;21129;-67
2023/05/17 08:43:57;;;;;;;6.68;4.30;;;;;;;;;;5033735;28;20033;-70
2023/05/17 08:46:25;;;;;;;8.15;3.78;;;;;;;;;;5018100;28;20485;-67
2023/05/17 08:48:52;;;;;;;5.05;4.60;;;;;;;;;;5037468;28;20285;-67
2023/05/17 08:51:21;;;;;;;8.05;4.38;;;;;;;;;;5037459;28;20030;-67
2023/05/17 08:53:46;;;;;;;6.32;4.78;;;;;;;;;;5038701;28;20123;-67
2023/05/17 08:56:15;;;;;;;4.93;4.53;;;;;;;;;;5036722;28;20108;-66
2023/05/17 08:58:42;;;;;;;5.57;5.00;;;;;;;;;;5038740;28;20360;-67
2023/05/17 09:01:08;;;;;;;5.65;4.63;;;;;;;;;;5036713;28;20048;-67
2023/05/17 09:03:38;;;;;;;5.25;4.50;;;;;;;;;;5031646;28;20029;-67
2023/05/17 09:06:05;;;;;;;4.95;4.55;;;;;;;;;;5037694;28;20052;-66
2023/05/17 09:08:31;;;;;;;8.43;5.20;;;;;;;;;;5037493;28;20060;-67
2023/05/17 09:11:00;;;;;;;5.20;4.55;;;;;;;;;;5035462;28;20033;-67
2023/05/17 09:13:26;;;;;;;6.60;5.03;;;;;;;;;;5038037;28;20090;-67
2023/05/17 09:15:53;;;;;;;5.30;4.80;;;;;;;;;;5037415;28;20041;-67
2023/05/17 09:18:27;;;;;;;6.40;4.80;;;;;;;;;;5035868;28;20492;-67
2023/05/17 09:20:53;;;;;;;5.55;4.22;;;;;;;;;;5036283;28;20037;-67
2023/05/17 09:23:20;;;;;;;7.88;4.70;;;;;;;;;;5039669;28;20122;-67
2023/05/17 09:25:47;;;;;;;5.63;5.13;;;;;;;;;;5039864;28;20102;-66
2023/05/17 09:28:12;;;;;;;7.25;5.00;;;;;;;;;;5030842;28;20045;-66
2023/05/17 09:30:38;;;;;;;6.68;5.13;;;;;;;;;;5034153;28;20102;-66
2023/05/17 09:33:06;;;;;;;4.90;4.60;;;;;;;;;;5041449;28;20029;-66
2023/05/17 09:35:32;;;;;;;6.88;5.47;;;;;;;;;;5034435;28;20481;-66
2023/05/17 09:38:06;;;;;;;5.03;4.65;;;;;;;;;;5032367;28;20033;-67
2023/05/17 09:40:32;;;;;;;5.68;5.18;;;;;;;;;;5039279;28;20025;-67
2023/05/17 09:42:58;;;;;;;5.47;4.97;;;;;;;;;;5038784;28;20498;-67
2023/05/17 09:45:24;;;;;;;7.20;4.88;;;;;;;;;;5036687;28;20029;-67
2023/05/17 09:47:50;;;;;;;4.82;4.43;;;;;;;;;;5035301;28;20044;-67
2023/05/17 09:50:20;;;;;;;5.85;4.50;;;;;;;;;;5041070;28;20037;-67
2023/05/17 09:52:46;;;;;;;7.85;5.05;;;;;;;;;;5041310;28;20124;-67
2023/05/17 09:55:12;;;;;;;5.07;4.63;;;;;;;;;;5044417;28;20111;-67
2023/05/17 09:57:39;;;;;;;5.10;4.70;;;;;;;;;;5040625;28;20465;-67
2023/05/17 10:00:12;;;;;;;7.70;4.88;;;;;;;;;;5039521;28;20094;-67
2023/05/17 10:02:43;;;;;;;5.07;4.68;;;;;;;;;;5042898;28;20097;-67
2023/05/17 10:05:11;;;;;;;5.35;4.90;;;;;;;;;;5037886;28;20096;-67
2023/05/17 10:07:37;;;;;;;4.85;4.30;;;;;;;;;;5037671;28;20108;-67
2023/05/17 10:10:05;;;;;;;4.30;4.00;;;;;;;;;;5040474;28;20063;-67
2023/05/17 10:12:35;;;;;;;4.72;4.38;;;;;;;;;;5042967;28;20037;-67
2023/05/17 10:15:00;;;;;;;4.57;4.18;;;;;;;;;;5037839;28;20036;-67
2023/05/17 10:17:28;;;;;;;5.13;4.72;;;;;;;;;;5038489;28;20040;-67
2023/05/17 10:19:55;;;;;;;4.30;3.90;;;;;;;;;;5040753;28;20484;-67
2023/05/17 10:22:21;;;;;;;6.88;4.32;;;;;;;;;;5042367;28;20037;-67
2023/05/17 10:24:48;;;;;;;7.20;4.35;;;;;;;;;;5036702;28;20033;-66
2023/05/17 10:27:15;;;;;;;5.82;4.30;;;;;;;;;;5040358;28;20025;-67
2023/05/17 10:29:42;;;;;;;4.88;4.10;;;;;;;;;;5042261;28;20596;-67
2023/05/17 10:32:09;;;;;;;5.82;4.30;;;;;;;;;;5040126;28;20385;-67
2023/05/17 10:34:38;;;;;;;4.40;4.00;;;;;;;;;;5039352;28;20038;-67
2023/05/17 10:37:04;;;;;;;4.68;4.22;;;;;;;;;;5031294;28;20408;-67
2023/05/17 10:39:37;;;;;;;4.72;4.15;;;;;;;;;;5041007;28;20523;-67
2023/05/17 10:42:06;;;;;;;4.75;4.32;;;;;;;;;;5039807;28;20025;-67
2023/05/17 10:44:36;;;;;;;;;;;;;;;;;;5036573;28;20095;-67
2023/05/17 10:47:02;;;;;;;4.57;4.25;;;;;;;;;;5034711;28;19934;-67
2023/05/17 10:49:30;;;;;;;5.00;4.38;;;;;;;;;;5038856;28;20448;-67
2023/05/17 10:51:57;;;;;;;7.13;5.00;;;;;;;;;;5037324;28;20049;-67
2023/05/17 10:54:34;;;;;;;5.80;4.80;;;;;;;;;;5022117;28;20029;-67
2023/05/17 10:57:03;;;;;;;5.57;5.07;;;;;;;;;;5037706;28;20039;-67
2023/05/17 10:59:30;;;;;;;4.80;4.38;;;;;;;;;;5038370;28;20037;-67
2023/05/17 11:02:03;;;;;;;6.40;4.32;;;;;;;;;;5036532;28;20564;-67
2023/05/17 11:04:36;;;;;;;6.63;4.97;;;;;;;;;;5039842;28;20363;-67
2023/05/17 11:07:17;;;;;;;5.22;4.82;;;;;;;;;;5039261;28;20090;-67
2023/05/17 11:09:58;;;;;;;6.70;4.40;;;;;;;;;;5032832;28;20060;-67
2023/05/17 11:12:35;;;;;;;4.45;4.05;;;;;;;;;;5039101;28;20033;-67
2023/05/17 11:15:04;;;;;;;5.75;5.35;;;;;;;;;;5035388;28;20036;-67
2023/05/17 11:17:52;;;;;;;9.43;5.22;;;;;;;;;;5016334;28;20334;-67
2023/05/17 11:20:23;;;;;;;5.13;4.60;;;;;;;;;;5035541;28;20264;-67
2023/05/17 11:22:59;;;;;;;5.60;5.10;;;;;;;;;;5037536;28;20064;-67
2023/05/17 11:25:44;;;;;;;5.85;4.53;;;;;;;;;;5039379;28;20118;-67
2023/05/17 11:28:27;;;;;;;5.50;4.70;;;;;;;;;;5036174;28;20091;-67
2023/05/17 11:30:59;;;;;;;6.22;5.13;;;;;;;;;;5038038;28;20039;-67
2023/05/17 11:33:42;;;;;;;5.47;4.97;;;;;;;;;;5039019;28;20048;-67
2023/05/17 11:36:18;;;;;;;5.72;5.32;;;;;;;;;;5034584;28;20568;-67
2023/05/17 11:38:48;;;;;;;5.82;5.20;;;;;;;;;;5039750;28;20510;-67
2023/05/17 11:41:21;;;;;;;5.47;4.97;;;;;;;;;;5036370;28;20064;-67
2023/05/17 11:43:50;;;;;;;5.63;5.03;;;;;;;;;;5034131;28;20110;-67
2023/05/17 11:46:22;;;;;;;8.15;5.35;;;;;;;;;;5031796;28;20504;-67
2023/05/17 11:48:52;;;;;;;7.68;5.45;;;;;;;;;;5037324;28;20051;-67
2023/05/17 11:51:18;;;;;;;6.18;5.55;;;;;;;;;;5037002;28;20135;-67
2023/05/17 11:53:46;;;;;;;5.15;4.72;;;;;;;;;;5038323;28;20033;-67
2023/05/17 11:56:12;;;;;;;5.15;4.75;;;;;;;;;;5039684;28;20041;-66
2023/05/17 11:58:37;;;;;;;5.65;5.13;;;;;;;;;;5038150;28;20120;-67
2023/05/17 12:01:04;;;;;;;6.10;4.95;;;;;;;;;;5034905;28;20086;-67
2023/05/17 12:03:31;;;;;;;5.40;5.00;;;;;;;;;;5036253;28;20055;-67
2023/05/17 12:06:01;;;;;;;14.77;5.55;;;;;;;;;;5038008;28;20037;-67
2023/05/17 12:08:27;;;;;;;5.65;4.93;;;;;;;;;;5035325;28;20045;-67
2023/05/17 12:10:55;;;;;;;6.32;5.07;;;;;;;;;;5036261;28;20105;-67
2023/05/17 12:13:21;;;;;;;5.22;4.78;;;;;;;;;;5018025;28;20391;-67
2023/05/17 12:15:59;;;;;;;7.22;4.93;;;;;;;;;;5036940;28;20469;-67
2023/05/17 12:18:38;;;;;;;6.50;4.88;;;;;;;;;;5035137;28;20040;-67
2023/05/17 12:21:05;;;;;;;5.32;4.93;;;;;;;;;;5035153;28;20037;-66
2023/05/17 12:23:32;;;;;;;5.28;4.97;;;;;;;;;;5034219;28;20040;-67
2023/05/17 12:26:05;;;;;;;7.47;5.20;;;;;;;;;;5031297;28;20033;-67
2023/05/17 12:28:30;;;;;;;5.30;4.85;;;;;;;;;;5037165;28;20489;-67
2023/05/17 12:30:57;;;;;;;6.00;4.95;;;;;;;;;;5024004;28;20033;-67
2023/05/17 12:33:26;;;;;;;5.53;5.03;;;;;;;;;;5027107;28;20044;-67
2023/05/17 12:35:52;;;;;;;5.85;5.20;;;;;;;;;;5038092;28;20580;-67
2023/05/17 12:38:18;;;;;;;4.70;4.30;;;;;;;;;;5029785;28;20033;-67
2023/05/17 12:40:44;;;;;;;5.20;4.78;;;;;;;;;;5028007;28;20029;-67
2023/05/17 12:43:10;;;;;;;4.95;4.40;;;;;;;;;;5031374;28;20049;-67
2023/05/17 12:45:35;;;;;;;13.82;5.47;;;;;;;;;;5034518;28;20087;-67
2023/05/17 12:48:01;;;;;;;4.85;4.50;;;;;;;;;;5036854;28;20102;-67
2023/05/17 12:50:30;;;;;;;4.90;4.50;;;;;;;;;;5031957;28;20033;-67
2023/05/17 12:52:56;;;;;;;6.03;5.53;;;;;;;;;;5035666;28;20443;-67
2023/05/17 12:55:22;;;;;;;5.75;4.90;;;;;;;;;;5037083;28;20116;-67
2023/05/17 12:57:52;;;;;;;7.85;4.93;;;;;;;;;;5030605;28;20044;-67
2023/05/17 13:00:19;;;;;;;5.05;4.65;;;;;;;;;;5035949;28;20069;-67
2023/05/17 13:02:44;;;;;;;5.45;4.93;;;;;;;;;;5031418;28;20300;-67
2023/05/17 13:05:17;;;;;;;5.30;4.90;;;;;;;;;;5030859;28;20087;-67
2023/05/17 13:07:45;;;;;;;5.50;5.00;;;;;;;;;;5035294;28;20037;-67
2023/05/17 13:10:25;;;;;;;5.10;4.70;;;;;;;;;;5027569;28;20825;-67
2023/05/17 13:12:57;;;;;;;5.93;4.75;;;;;;;;;;5038815;28;20124;-67
2023/05/17 13:15:30;;;;;;;5.55;5.15;;;;;;;;;;5035541;28;20512;-68
2023/05/17 13:17:58;;;;;;;5.30;4.85;;;;;;;;;;5037916;28;20033;-67
2023/05/17 13:20:25;;;;;;;5.97;5.13;;;;;;;;;;5033574;28;20065;-67
2023/05/17 13:22:51;;;;;;;5.38;4.97;;;;;;;;;;5035007;28;20252;-67
2023/05/17 13:25:17;;;;;;;5.65;5.25;;;;;;;;;;5031895;28;20041;-67
2023/05/17 13:27:47;;;;;;;6.47;5.78;;;;;;;;;;5038477;28;20396;-67
2023/05/17 13:30:15;;;;;;;5.57;5.15;;;;;;;;;;5034850;28;20048;-68
2023/05/17 13:32:40;;;;;;;6.53;5.88;;;;;;;;;;5039003;28;20126;-67
2023/05/17 13:35:06;;;;;;;6.45;5.53;;;;;;;;;;5034952;28;20091;-67
2023/05/17 13:37:32;;;;;;;6.25;5.15;;;;;;;;;;5040380;28;20302;-66
2023/05/17 13:39:57;;;;;;;5.60;4.97;;;;;;;;;;5041332;28;20496;-66
2023/05/17 13:42:23;;;;;;;5.68;5.10;;;;;;;;;;5039464;28;20025;-66
2023/05/17 13:44:48;;;;;;;6.38;5.38;;;;;;;;;;5038550;28;20048;-66
2023/05/17 13:47:14;;;;;;;5.60;5.10;;;;;;;;;;5039654;28;20037;-67
2023/05/17 13:49:40;;;;;;;8.52;5.70;;;;;;;;;;5036719;28;20033;-66
2023/05/17 13:52:07;;;;;;;7.35;5.55;;;;;;;;;;5038583;28;20392;-67
2023/05/17 13:54:33;;;;;;;7.72;5.30;;;;;;;;;;5039885;28;20454;-66
2023/05/17 13:57:00;;;;;;;6.18;4.90;;;;;;;;;;5039685;28;20105;-66
2023/05/17 13:59:25;;;;;;;5.53;5.03;;;;;;;;;;5035283;28;20044;-67
2023/05/17 14:01:51;;;;;;;5.22;4.88;;;;;;;;;;5038490;28;20396;-66
2023/05/17 14:04:18;;;;;;;5.88;5.38;;;;;;;;;;5042032;28;20048;-66
2023/05/17 14:06:44;;;;;;;6.35;5.60;;;;;;;;;;5042327;28;20094;-66
2023/05/17 14:09:10;;;;;;;5.97;5.47;;;;;;;;;;5018909;28;20065;-67
2023/05/17 14:11:36;;;;;;;5.53;5.10;;;;;;;;;;5040913;28;20124;-67
2023/05/17 14:14:02;;;;;;;9.68;5.63;;;;;;;;;;5037198;28;20187;-67
2023/05/17 14:16:28;;;;;;;4.97;4.68;;;;;;;;;;5038824;28;20161;-67
2023/05/17 14:18:54;;;;;;;6.55;5.70;;;;;;;;;;5035325;28;20861;-67
2023/05/17 14:21:19;;;;;;;6.30;5.80;;;;;;;;;;5040523;28;20033;-67
2023/05/17 14:23:45;;;;;;;5.97;5.47;;;;;;;;;;5041560;28;20507;-68
2023/05/17 14:26:11;;;;;;;8.25;5.78;;;;;;;;;;5032198;28;20041;-67
2023/05/17 14:28:37;;;;;;;6.45;5.88;;;;;;;;;;5040463;28;20029;-67
2023/05/17 14:31:07;;;;;;;8.18;5.50;;;;;;;;;;5039946;28;20416;-67
2023/05/17 14:33:33;;;;;;;6.03;5.57;;;;;;;;;;5036986;28;20116;-67
2023/05/17 14:35:59;;;;;;;5.63;5.07;;;;;;;;;;5041121;28;20167;-67
2023/05/17 14:38:24;;;;;;;5.68;5.28;;;;;;;;;;5036828;28;20032;-67
2023/05/17 14:40:50;;;;;;;7.45;5.38;;;;;;;;;;5037431;28;20037;-66
2023/05/17 14:43:16;;;;;;;6.13;5.57;;;;;;;;;;5033841;28;20053;-66
2023/05/17 14:45:41;;;;;;;5.80;5.40;;;;;;;;;;5037620;28;20072;-66